This is the latest recevied weather packets stored in our database for station/object SQ9RHX-11. If no packets are shown the sender has not sent any weather packets the latest 10 day(s).
| Time | Temp. | Humidity | Pressure | Rain* | Wind** | Luminosity | Snow |
|---|---|---|---|---|---|---|---|
| 1777986056 | 32.22° C | 26% | 1006.6 hPa | - | - | - | - |
| 1777984256 | 32.22° C | 27% | 1006.8 hPa | - | - | - | - |
| 1777982457 | 30.56° C | 29% | 1007.3 hPa | - | - | - | - |
| 1777980658 | 30.56° C | 29% | 1007.5 hPa | - | - | - | - |
| 1777978857 | 29.44° C | 32% | 1007.7 hPa | - | - | - | - |
| 1777977057 | 27.22° C | 35% | 1008 hPa | - | - | - | - |
| 1777975257 | 26.67° C | 36% | 1008.2 hPa | - | - | - | - |
| 1777973457 | 26.11° C | 38% | 1008.5 hPa | - | - | - | - |
| 1777971658 | 25° C | 42% | 1008.8 hPa | - | - | - | - |
| 1777969858 | 22.22° C | 53% | 1009.2 hPa | - | - | - | - |
| 1777968058 | 19.44° C | 58% | 1009.4 hPa | - | - | - | - |
| 1777966258 | 18.33° C | 61% | 1009.5 hPa | - | - | - | - |
| 1777964458 | 16.67° C | 63% | 1009.5 hPa | - | - | - | - |
| 1777962658 | 16.11° C | 65% | 1009.5 hPa | - | - | - | - |
| 1777960859 | 15.56° C | 67% | 1009.8 hPa | - | - | - | - |
| 1777959060 | 15.56° C | 69% | 1010.1 hPa | - | - | - | - |
| 1777957260 | 14.44° C | 73% | 1010.1 hPa | - | - | - | - |
| 1777955460 | 12.22° C | 77% | 1010.3 hPa | - | - | - | - |
| 1777953660 | 11.11° C | 77% | 1010.2 hPa | - | - | - | - |
| 1777951861 | 11.11° C | 77% | 1010.3 hPa | - | - | - | - |
| 1777950062 | 11.67° C | 76% | 1010.4 hPa | - | - | - | - |
| 1777948262 | 11.67° C | 76% | 1010.7 hPa | - | - | - | - |
| 1777946463 | 11.67° C | 76% | 1010.9 hPa | - | - | - | - |
| 1777944664 | 11.11° C | 75% | 1011.1 hPa | - | - | - | - |
| 1777942865 | 11.11° C | 75% | 1011.1 hPa | - | - | - | - |
* Rain since midnight (hover to see other rain measurements)
** Current wind speed in m/s (hover to see current wind gust speed)